Idlewild, Michigan
Current Conditions -  °F | °C
As of 4:34 AM on Friday 28 Nov 2014 (Local Time) from KRQB Reporting Station
Overcast Overcast  
Wind Chill: 17°   Ceiling: 3300
Heat Index: 17°   Visibility: 10mi
Dew Point: 15°   Wind: 0mph
Humidity: 90%   Direction: NA
Pressure: 30.3"   Gusts: NA
Location:  43.89°N, 85.8°W
Report Text: KRQB 280934Z AUTO 00000KT 10SM OVC033 M08/M09 A3030 RMK AO2 T10811095
Loading
Personal Weather Stations






























Interactive Weather Map New forecast layout! Learn more

10-Day Weather Forecast

Advertisements
Track Severe Weather on mobile